CST,Max TemperatureF,Mean TemperatureF,Min TemperatureF,Max Dew PointF,MeanDew PointF,Min DewpointF,Max Humidity, Mean Humidity, Min Humidity, Max Sea Level PressureIn, Mean Sea Level PressureIn, Min Sea Level PressureIn, Max VisibilityMiles, Mean VisibilityMiles, Min VisibilityMiles, Max Wind SpeedMPH, Mean Wind SpeedMPH, Max Gust SpeedMPH,PrecipitationIn, CloudCover, Events, WindDirDegrees
2013-1-1,39,38,37,36,34,30,93,87,75,30.24,30.14,30.05,10,9,3,16,9,,0.03,8,,1
2013-1-2,35,32,30,30,24,18,81,70,48,30.33,30.28,30.23,10,10,10,13,8,,0.00,4,,358
2013-1-3,42,35,28,30,27,25,87,74,57,30.46,30.39,30.30,10,9,4,12,4,,0.00,0,,329
2013-1-4,46,38,30,34,29,25,87,73,49,30.53,30.46,30.42,10,8,2,8,2,,0.00,2,,265
2013-1-5,48,40,33,37,34,28,87,78,62,30.42,30.34,30.28,10,9,4,14,4,,0.00,6,,182
2013-1-6,51,43,33,37,34,28,93,75,44,30.41,30.32,30.28,10,6,0,12,7,,0.00,3,,293
2013-1-7,48,39,30,30,27,25,86,67,43,30.47,30.35,30.23,10,7,0,9,4,,0.00,0,,82
2013-1-8,51,43,35,43,35,28,87,72,58,30.27,30.20,30.14,10,7,0,8,4,,0.01,3,,77
2013-1-9,53,50,46,52,47,43,94,87,82,30.34,30.27,30.21,10,6,2,17,10,,1.41,8,,36
2013-1-10,64,58,53,61,55,50,94,88,77,30.24,30.03,29.89,10,8,2,25,12,33,0.16,6,,128
2013-1-11,64,56,48,54,49,45,88,76,59,30.05,29.97,29.92,10,8,2,15,10,,0.00,1,,174
2013-1-12,71,66,60,66,62,55,94,85,73,29.95,29.84,29.73,10,8,0,23,13,34,0.65,8,Thunderstorm,171
2013-1-13,55,42,30,52,33,23,88,81,69,30.31,30.06,29.77,10,9,4,26,20,33,2.09,6,Thunderstorm,353
2013-1-14,33,30,26,23,19,18,75,69,56,30.44,30.34,30.30,10,10,10,23,18,26,0.00,4,,13
2013-1-15,30,28,26,27,22,18,86,78,69,30.31,30.20,30.11,10,9,2,22,17,29,0.06,6,,9
2013-1-16,37,34,30,27,24,19,86,70,48,30.21,30.17,30.14,10,10,2,13,8,,0.00,5,,332
2013-1-17,53,43,33,36,29,23,75,63,50,30.52,30.33,30.19,10,10,10,14,9,17,0.00,2,,331
2013-1-18,51,40,30,34,28,25,86,65,43,30.60,30.49,30.36,10,10,6,10,5,,0.00,0,,147
2013-1-19,59,47,35,36,32,28,75,61,39,30.36,30.28,30.20,10,10,10,16,9,,0.00,0,,185
2013-1-20,57,46,35,39,33,28,87,63,38,30.30,30.23,30.18,10,10,8,15,8,17,0.00,0,,29
2013-1-21,44,38,30,34,23,18,81,58,37,30.39,30.32,30.20,10,10,10,21,10,28,0.00,2,,34
2013-1-22,41,34,28,25,22,16,86,64,41,30.46,30.38,30.34,10,9,0,13,7,,0.00,2,,58
2013-1-23,57,44,30,43,34,23,81,68,50,30.36,30.28,30.20,10,10,9,9,4,,0.00,4,,112
2013-1-24,46,40,35,41,27,19,87,60,45,30.43,30.32,30.22,10,10,10,23,11,28,0.00,8,,33
2013-1-25,46,40,33,36,31,21,93,74,52,30.27,30.19,30.11,10,8,1,13,6,,0.00,5,,12
2013-1-26,48,40,32,37,33,28,93,75,54,30.36,30.30,30.26,10,7,2,13,4,,0.00,5,,79
2013-1-27,62,54,46,55,47,37,82,76,71,30.25,30.18,30.10,10,10,9,15,7,,0.00,5,,140
2013-1-28,71,66,62,63,59,54,83,76,69,30.14,30.08,30.03,10,10,10,23,18,29,0.00,6,,182
2013-1-29,71,63,55,64,60,52,94,80,69,30.02,29.67,29.50,10,10,4,29,18,39,0.48,6,Thunderstorm,170
2013-1-30,55,45,35,52,36,25,88,68,53,30.09,29.79,29.58,10,10,10,30,14,38,0.03,5,,264
2013-1-31,59,44,30,36,29,21,86,61,31,30.36,30.17,30.09,10,10,10,21,10,24,0.00,0,,248